EGEC - Campbeltown
Distance from station: E 5mi, 14km
Updated: 10/20/2017 9:50am
NOT Current
Few Clouds
Few Clouds
 Wind from SE
Wind: SE 15 mph , 24 km/h
Temperature: 52°F , 11°C
Dew Point: 48°F , 9°C
Humidity: 88%
Barometer: 29.47 inHg , 998 hPa
Clouds: Few Clouds
Visibility: 6 miles , 10 km
Cloud details: Few Clouds 1600 ft
2017/10/20 16:50 EGEC 201650Z 14013KT 9999 FEW016 11/09 Q0998